Richford, Vermont
Current Conditions -  °F | °C
As of 9:35 AM on Friday 28 Nov 2014 (Local Time) from KFSO Reporting Station
Overcast Overcast  
Wind Chill: 15°   Ceiling: 4000
Heat Index: 25°   Visibility: 10mi
Dew Point: 17°   Wind: 10mph
Humidity: 74%   Direction: 270°W
Pressure: 30.1"   Gusts: NA
Location:  45°N, 72.67°W
Report Text: KFSO 281435Z AUTO 27009KT 230V290 10SM OVC040 M04/M08 A3010 RMK AO2 T10401081
Loading
Personal Weather Stations






























Interactive Weather Map New forecast layout! Learn more

10-Day Weather Forecast

Advertisements
Track Severe Weather on mobile